地図

経路データ

SID SEASON NUMBER BASIN SUBBASIN NAME ISO_TIME NATURE LAT LON WMO_WIND WMO_PRES WMO_AGENCY TRACK_TYPE DIST2LAND LANDFALL IFLAG USA_AGENCY USA_ATCF_ID USA_LAT USA_LON USA_RECORD USA_STATUS USA_WIND USA_PRES USA_SSHS USA_R34_NE USA_R34_SE USA_R34_SW USA_R34_NW USA_R50_NE USA_R50_SE USA_R50_SW USA_R50_NW USA_R64_NE USA_R64_SE USA_R64_SW USA_R64_NW USA_POCI USA_ROCI USA_RMW USA_EYE TOKYO_LAT TOKYO_LON TOKYO_GRADE TOKYO_WIND TOKYO_PRES TOKYO_R50_DIR TOKYO_R50_LONG TOKYO_R50_SHORT TOKYO_R30_DIR TOKYO_R30_LONG TOKYO_R30_SHORT TOKYO_LAND CMA_LAT CMA_LON CMA_CAT CMA_WIND CMA_PRES HKO_LAT HKO_LON HKO_CAT HKO_WIND HKO_PRES NEWDELHI_LAT NEWDELHI_LON NEWDELHI_GRADE NEWDELHI_WIND NEWDELHI_PRES NEWDELHI_CI NEWDELHI_DP NEWDELHI_POCI REUNION_LAT REUNION_LON REUNION_TYPE REUNION_WIND REUNION_PRES REUNION_TNUM REUNION_CI REUNION_RMW REUNION_R34_NE REUNION_R34_SE REUNION_R34_SW REUNION_R34_NW REUNION_R50_NE REUNION_R50_SE REUNION_R50_SW REUNION_R50_NW REUNION_R64_NE REUNION_R64_SE REUNION_R64_SW REUNION_R64_NW BOM_LAT BOM_LON BOM_TYPE BOM_WIND BOM_PRES BOM_TNUM BOM_CI BOM_RMW BOM_R34_NE BOM_R34_SE BOM_R34_SW BOM_R34_NW BOM_R50_NE BOM_R50_SE BOM_R50_SW BOM_R50_NW BOM_R64_NE BOM_R64_SE BOM_R64_SW BOM_R64_NW BOM_ROCI BOM_POCI BOM_EYE BOM_POS_METHOD BOM_PRES_METHOD NADI_LAT NADI_LON NADI_CAT NADI_WIND NADI_PRES WELLINGTON_LAT WELLINGTON_LON WELLINGTON_WIND WELLINGTON_PRES DS824_LAT DS824_LON DS824_STAGE DS824_WIND DS824_PRES TD9636_LAT TD9636_LON TD9636_STAGE TD9636_WIND TD9636_PRES TD9635_LAT TD9635_LON TD9635_WIND TD9635_PRES TD9635_ROCI NEUMANN_LAT NEUMANN_LON NEUMANN_CLASS NEUMANN_WIND NEUMANN_PRES MLC_LAT MLC_LON MLC_CLASS MLC_WIND MLC_PRES USA_GUST BOM_GUST BOM_GUST_PER REUNION_GUST REUNION_GUST_PER USA_SEAHGT USA_SEARAD_NE USA_SEARAD_SE USA_SEARAD_SW USA_SEARAD_NW STORM_SPEED STORM_DIR
1944191N19087 1944 34 NI BB NOT_NAMED 1944-07-09 00:00:00 TS 18.7000 87.3000 main 173 167 _________O____ -1 18.7000 87.3000 TC 30 2 267
1944191N19087 1944 34 NI BB NOT_NAMED 1944-07-09 03:00:00 TS 18.6950 87.2000 main 167 162 _________PO___ -1 18.6925 87.1500 TC 30 18.7000 87.3000 1 2 271
1944191N19087 1944 34 NI BB NOT_NAMED 1944-07-09 06:00:00 TS 18.7032 87.0575 main 162 154 _________OP___ -1 18.7000 87.0000 TC 30 18.7079 87.1437 1 3 277
1944191N19087 1944 34 NI BB NOT_NAMED 1944-07-09 09:00:00 TS 18.7297 86.9100 main 154 140 _________PP___ -1 18.7350 86.8500 TC 30 18.7226 86.9899 1 3 285
1944191N19087 1944 34 NI BB NOT_NAMED 1944-07-09 12:00:00 TS 18.7755 86.7706 main 140 133 _________OP___ -1 18.8000 86.7000 TC 30 18.7510 86.8412 1 3 294
1944191N19087 1944 34 NI BB NOT_NAMED 1944-07-09 15:00:00 TS 18.8500 86.6175 main 123 119 _________PO___ -1 18.9000 86.5350 TC 30 18.8000 86.7000 1 3 301
1944191N19087 1944 34 NI BB NOT_NAMED 1944-07-09 18:00:00 TS 18.9364 86.4847 main 119 105 _________OP___ -1 19.0000 86.4000 TC 30 18.8728 86.5695 1 3 307
1944191N19087 1944 34 NI BB NOT_NAMED 1944-07-09 21:00:00 TS 19.0112 86.3913 main 105 91 _________PP___ -1 19.0650 86.3275 TC 30 18.9575 86.4551 1 2 313
1944191N19087 1944 34 NI BB NOT_NAMED 1944-07-10 00:00:00 TS 19.0692 86.3316 main 91 91 _________OP___ -1 19.1000 86.3000 TC 30 19.0384 86.3632 1 1 318
1944191N19087 1944 34 NI BB NOT_NAMED 1944-07-10 03:00:00 TS 19.1037 86.2962 main 91 91 _________PO___ -1 19.1075 86.2925 TC 30 19.1000 86.3000 1 1 318
1944191N19087 1944 34 NI BB NOT_NAMED 1944-07-10 06:00:00 TS 19.1108 86.2856 main 91 91 _________OP___ -1 19.1000 86.3000 TC 30 19.1215 86.2712 1 0 0
1944191N19087 1944 34 NI BB NOT_NAMED 1944-07-10 09:00:00 TS 19.1112 86.2850 main 91 91 _________PP___ -1 19.1000 86.3000 TC 30 19.1225 86.2699 1 0 0
1944191N19087 1944 34 NI BB NOT_NAMED 1944-07-10 12:00:00 TS 19.1061 86.2919 main 91 91 _________OP___ -1 19.1000 86.3000 TC 30 19.1122 86.2837 1 0 0
1944191N19087 1944 34 NI BB NOT_NAMED 1944-07-10 15:00:00 TS 19.1000 86.3000 main 91 91 _________PO___ -1 19.1000 86.3000 TC 30 19.1000 86.3000 1 0 124
1944191N19087 1944 34 NI BB NOT_NAMED 1944-07-10 18:00:00 TS 19.0837 86.3222 main 91 91 _________OP___ -1 19.1000 86.3000 TC 30 19.0674 86.3445 1 1 127
1944191N19087 1944 34 NI BB NOT_NAMED 1944-07-10 21:00:00 TS 19.0586 86.3560 main 94 91 _________PP___ -1 19.0775 86.3299 TC 30 19.0397 86.3821 1 0 0
1944191N19087 1944 34 NI BB NOT_NAMED 1944-07-11 00:00:00 TS 19.0711 86.3393 main 91 88 _________OP___ -1 19.1000 86.3000 TC 30 19.0423 86.3786 1 2 308
1944191N19087 1944 34 NI BB NOT_NAMED 1944-07-11 03:00:00 TS 19.1562 86.2262 main 78 59 _________PO___ -1 19.2124 86.1524 TC 30 19.1000 86.3000 1 4 308
1944191N19087 1944 34 NI BB NOT_NAMED 1944-07-11 06:00:00 TS 19.3152 86.0041 main 59 30 _________OP___ -1 19.4000 85.9000 TC 30 19.2305 86.1082 1 6 307
1944191N19087 1944 34 NI BB NOT_NAMED 1944-07-11 09:00:00 TS 19.5264 85.7026 main 30 0 _________PP___ -1 19.6351 85.5651 TC 30 19.4178 85.8401 1 8 307
1944191N19087 1944 34 NI BB NOT_NAMED 1944-07-11 12:00:00 TS 19.7731 85.3634 main 0 0 _________OP___ -1 19.9000 85.2000 TC 30 19.6461 85.5269 1 8 309
1944191N19087 1944 34 NI BB NOT_NAMED 1944-07-11 15:00:00 TS 20.0212 85.0462 main 0 0 _________PO___ -1 20.1424 84.8923 TC 30 19.9000 85.2000 1 8 311
1944191N19087 1944 34 NI BB NOT_NAMED 1944-07-11 18:00:00 TS 20.2869 84.7416 main 0 0 _________OP___ -1 20.4000 84.6000 TC 30 20.1739 84.8833 1 8 314
1944191N19087 1944 34 NI BB NOT_NAMED 1944-07-11 21:00:00 TS 20.5901 84.4204 main 0 0 _________PP___ -1 20.7150 84.2776 TC 30 20.4653 84.5632 1 8 316
1944191N19087 1944 34 NI BB NOT_NAMED 1944-07-12 00:00:00 TS 20.8745 84.1307 main 0 0 _________OP___ -1 21.0000 84.0000 TC 30 20.7489 84.2614 1 7 316
1944191N19087 1944 34 NI BB NOT_NAMED 1944-07-12 03:00:00 TS 21.0862 83.9136 main 0 0 _________PO___ -1 21.1724 83.8273 TC 30 21.0000 84.0000 1 5 316
1944191N19087 1944 34 NI BB NOT_NAMED 1944-07-12 06:00:00 TS 21.2408 83.7551 main 0 0 _________OP___ -1 21.3000 83.7000 TC 30 21.1815 83.8103 1 4 317
1944191N19087 1944 34 NI BB NOT_NAMED 1944-07-12 09:00:00 TS 21.3898 83.6095 main 0 0 _________PP___ -1 21.4500 83.5574 TC 30 21.3296 83.6617 1 4 317
1944191N19087 1944 34 NI BB NOT_NAMED 1944-07-12 12:00:00 TS 21.5314 83.4661 main 0 0 _________OP___ -1 21.6000 83.4000 TC 30 21.4628 83.5323 1 4 314
1944191N19087 1944 34 NI BB NOT_NAMED 1944-07-12 15:00:00 TS 21.6713 83.3000 main 0 0 _________PO___ -1 21.7425 83.2000 TC 30 21.6000 83.4000 1 4 314
1944191N19087 1944 34 NI BB NOT_NAMED 1944-07-12 18:00:00 TS 21.8420 83.1182 main 0 0 _________OP___ -1 21.9000 83.0000 TC 30 21.7840 83.2363 1 5 319
1944191N19087 1944 34 NI BB NOT_NAMED 1944-07-12 21:00:00 TS 22.0399 82.9576 main 0 0 _________PP___ -1 22.1074 82.8500 TC 30 21.9724 83.0651 1 5 322
1944191N19087 1944 34 NI BB NOT_NAMED 1944-07-13 00:00:00 TS 22.2248 82.7932 main 0 0 _________OP___ -1 22.3000 82.7000 TC 30 22.1496 82.8863 1 5 314
1944191N19087 1944 34 NI BB NOT_NAMED 1944-07-13 03:00:00 TS 22.3612 82.6037 main 0 0 _________PO___ -1 22.4225 82.5075 TC 30 22.3000 82.7000 1 4 302
1944191N19087 1944 34 NI BB NOT_NAMED 1944-07-13 06:00:00 TS 22.4560 82.3974 main 0 0 _________OP___ -1 22.5000 82.3000 TC 30 22.4119 82.4949 1 4 294
1944191N19087 1944 34 NI BB NOT_NAMED 1944-07-13 09:00:00 TS 22.5300 82.1887 main 0 0 _________PP___ -1 22.5650 82.0925 TC 30 22.4951 82.2849 1 4 288
1944191N19087 1944 34 NI BB NOT_NAMED 1944-07-13 12:00:00 TS 22.5779 81.9912 main 0 0 _________OP___ -1 22.6000 81.9000 TC 30 22.5557 82.0824 1 4 282
1944191N19087 1944 34 NI BB NOT_NAMED 1944-07-13 15:00:00 TS 22.6000 81.8175 main 0 0 _________PO___ -1 22.6000 81.7349 TC 30 22.6000 81.9000 1 3 277
1944191N19087 1944 34 NI BB NOT_NAMED 1944-07-13 18:00:00 TS 22.6114 81.6928 main 0 0 _________OP___ -1 22.6000 81.6000 TC 30 22.6227 81.7856 1 2 280
1944191N19087 1944 34 NI BB NOT_NAMED 1944-07-13 21:00:00 TS 22.6346 81.6084 main 0 0 _________PP___ -1 22.6348 81.5299 TC 30 22.6344 81.6869 1 2 289
1944191N19087 1944 34 NI BB NOT_NAMED 1944-07-14 00:00:00 TS 22.6769 81.4849 main 0 0 _________OP___ -1 22.7000 81.4000 TC 30 22.6539 81.5698 1 4 288
1944191N19087 1944 34 NI BB NOT_NAMED 1944-07-14 03:00:00 TS 22.7426 81.2400 main 0 0 _________PO___ -1 22.7852 81.0800 TC 30 22.7000 81.4000 1 6 288
1944191N19087 1944 34 NI BB NOT_NAMED 1944-07-14 06:00:00 TS 22.8504 80.9043 main 0 0 _________OP___ -1 22.9000 80.7000 TC 30 22.8009 81.1086 1 7 292
1944191N19087 1944 34 NI BB NOT_NAMED 1944-07-14 09:00:00 TS 22.9891 80.5679 main 0 0 _________PP___ -1 23.0500 80.3701 TC 30 22.9283 80.7657 1 7 295
1944191N19087 1944 34 NI BB NOT_NAMED 1944-07-14 12:00:00 TS 23.1332 80.2574 main 0 0 _________OP___ -1 23.2000 80.1000 TC 30 23.0665 80.4148 1 6 298
1944191N19087 1944 34 NI BB NOT_NAMED 1944-07-14 15:00:00 TS 23.2537 80.0174 main 0 0 _________PO___ -1 23.3074 79.9349 TC 30 23.2000 80.1000 1 4 300
1944191N19087 1944 34 NI BB NOT_NAMED 1944-07-14 18:00:00 TS 23.3575 79.8368 main 0 0 _________OP___ -1 23.4000 79.8000 TC 30 23.3150 79.8736 1 4 302
1944191N19087 1944 34 NI BB NOT_NAMED 1944-07-14 21:00:00 TS 23.4648 79.6449 main 0 0 _________PP___ -1 23.5075 79.6000 TC 30 23.4221 79.6898 1 4 301
1944191N19087 1944 34 NI BB NOT_NAMED 1944-07-15 00:00:00 TS 23.5591 79.4681 main 0 0 _________OP___ -1 23.6000 79.4000 TC 30 23.5182 79.5361 1 3 299
1944191N19087 1944 34 NI BB NOT_NAMED 1944-07-15 03:00:00 TS 23.6287 79.3175 main 0 0 _________PO___ -1 23.6575 79.2350 TC 30 23.6000 79.4000 1 3 295
1944191N19087 1944 34 NI BB NOT_NAMED 1944-07-15 06:00:00 TS 23.6801 79.1802 main 0 0 _________OP___ -1 23.7000 79.1000 TC 30 23.6602 79.2605 1 3 294
1944191N19087 1944 34 NI BB NOT_NAMED 1944-07-15 09:00:00 TS 23.7287 79.0674 main 0 0 _________PP___ -1 23.7500 79.0000 TC 30 23.7074 79.1348 1 2 295
1944191N19087 1944 34 NI BB NOT_NAMED 1944-07-15 12:00:00 TS 23.7754 78.9584 main 0 0 _________OP___ -1 23.8000 78.9000 TC 30 23.7509 79.0167 1 2 293
1944191N19087 1944 34 NI BB NOT_NAMED 1944-07-15 15:00:00 TS 23.8213 78.8250 main 0 0 _________PO___ -1 23.8425 78.7500 TC 30 23.8000 78.9000 1 3 294
1944191N19087 1944 34 NI BB NOT_NAMED 1944-07-15 18:00:00 TS 23.8783 78.7026 main 0 0 _________OP___ -1 23.9000 78.6000 TC 30 23.8620 78.7795 1 3 302
1944191N19087 1944 34 NI BB NOT_NAMED 1944-07-15 21:00:00 TS 23.9571 78.5882 main 0 0 _________PP___ -1 23.9900 78.4875 TC 30 23.9351 78.6552 1 3 310
1944191N19087 1944 34 NI BB NOT_NAMED 1944-07-16 00:00:00 TS 24.0438 78.4855 main 0 0 _________OP___ -1 24.1000 78.4000 TC 30 24.0157 78.5283 1 2 310
1944191N19087 1944 34 NI BB NOT_NAMED 1944-07-16 03:00:00 NR 24.1000 78.4000 main 0 __________O___ -1 TC 24.1000 78.4000 1 2 305

IBTrACS Databaseについて

本データベースは、米国NOAAが公開する1842年以降の世界の熱帯低気圧のベストトラックデータアーカイブInternational Best Track Archive for Climate Stewardship (IBTrACS)を、ウェブで閲覧しやすい形式に変換したものです。

最終更新日:2021-12-03